Time;durP1;ratioP1;P1;durP2;ratioP2;P2;SDS_P1;SDS_P2;PMS_P1;PMS_P2;Temp;Humidity;BMP_temperature;BMP_pressure;BME280_temperature;BME280_humidity;BME280_pressure;Samples;Min_cycle;Max_cycle;Signal;HPM_P1;HPM_P2
2022/04/30 00:01:01;;;;;;;20.48;15.23;;;10.30;99.90;;;;;;4825570;29;20042;-75
2022/04/30 00:03:28;;;;;;;22.27;14.68;;;10.20;99.90;;;;;;4825399;29;20023;-77
2022/04/30 00:05:57;;;;;;;24.48;16.35;;;10.20;99.90;;;;;;4825233;29;20079;-76
2022/04/30 00:08:24;;;;;;;23.70;15.90;;;10.20;99.90;;;;;;4825117;29;20026;-76
2022/04/30 00:10:50;;;;;;;24.65;15.30;;;10.30;99.90;;;;;;4808848;29;20030;-76
2022/04/30 00:13:16;;;;;;;19.17;14.00;;;10.20;99.90;;;;;;4824936;29;20030;-77
2022/04/30 00:15:42;;;;;;;18.77;13.43;;;10.20;99.90;;;;;;4825014;29;20042;-75
2022/04/30 00:18:09;;;;;;;22.10;13.73;;;10.20;99.90;;;;;;4824900;29;20463;-77
2022/04/30 00:20:38;;;;;;;21.50;14.18;;;10.20;99.90;;;;;;4808528;29;20484;-78
2022/04/30 00:23:19;;;;;;;21.25;14.00;;;10.20;99.90;;;;;;4824935;29;20018;-77
2022/04/30 00:25:49;;;;;;;19.50;13.15;;;10.20;99.90;;;;;;4823216;29;20054;-76
2022/04/30 00:28:19;;;;;;;24.15;13.25;;;10.10;99.90;;;;;;4808913;29;20370;-76
2022/04/30 00:30:46;;;;;;;24.38;13.77;;;10.10;99.90;;;;;;4808340;29;20027;-77
2022/04/30 00:33:12;;;;;;;30.05;21.92;;;10.10;99.90;;;;;;4824881;29;20022;-77
2022/04/30 00:35:38;;;;;;;26.83;17.85;;;10.00;99.90;;;;;;4822269;29;20037;-77
2022/04/30 00:38:04;;;;;;;31.50;17.27;;;10.00;99.90;;;;;;4807963;29;20065;-76
2022/04/30 00:40:31;;;;;;;26.20;16.48;;;10.00;99.90;;;;;;4824460;29;20030;-77
2022/04/30 00:42:56;;;;;;;23.52;16.77;;;10.00;99.90;;;;;;4824851;29;20022;-76
2022/04/30 00:45:22;;;;;;;30.10;17.05;;;10.00;99.90;;;;;;4824611;29;20030;-75
2022/04/30 00:47:48;;;;;;;27.92;15.35;;;10.00;99.90;;;;;;4808342;29;20117;-76
2022/04/30 00:50:16;;;;;;;22.50;15.57;;;9.90;99.90;;;;;;4824440;29;20110;-77
2022/04/30 00:52:46;;;;;;;26.25;15.77;;;10.00;99.90;;;;;;4824265;29;20030;-78
2022/04/30 00:55:13;;;;;;;27.05;15.30;;;10.00;99.90;;;;;;4824155;29;20152;-75
2022/04/30 00:57:43;;;;;;;23.67;15.00;;;10.00;99.90;;;;;;4805548;29;20030;-76
2022/04/30 01:00:10;;;;;;;24.20;14.48;;;10.00;99.90;;;;;;4824569;29;20043;-77
2022/04/30 01:02:36;;;;;;;25.48;15.63;;;9.90;99.90;;;;;;4824120;29;20370;-76
2022/04/30 01:05:03;;;;;;;28.63;14.68;;;9.90;99.90;;;;;;4824328;29;20058;-76
2022/04/30 01:07:30;;;;;;;23.30;15.27;;;9.90;99.90;;;;;;4824556;29;20045;-76
2022/04/30 01:09:56;;;;;;;22.80;14.60;;;9.90;99.90;;;;;;4824247;29;20101;-76
2022/04/30 01:12:23;;;;;;;38.47;14.65;;;9.90;99.90;;;;;;4824172;29;20034;-75
2022/04/30 01:14:52;;;;;;;23.10;14.60;;;9.80;99.90;;;;;;4824651;29;20026;-76
2022/04/30 01:17:18;;;;;;;21.95;14.40;;;9.80;99.90;;;;;;4821630;29;20030;-77
2022/04/30 01:19:47;;;;;;;29.45;15.55;;;9.80;99.90;;;;;;4823605;29;20451;-77
2022/04/30 01:22:29;;;;;;;25.80;14.13;;;9.70;99.90;;;;;;4824108;29;20041;-76
2022/04/30 01:24:55;;;;;;;;;;;9.70;99.90;;;;;;4808218;29;20059;-75
2022/04/30 01:27:23;;;;;;;22.38;13.63;;;9.60;99.90;;;;;;4824398;29;19912;-76
2022/04/30 01:29:49;;;;;;;27.90;14.90;;;9.60;99.90;;;;;;4823891;29;20022;-77
2022/04/30 01:37:43;;;;;;;23.15;13.80;;;9.50;99.90;;;;;;4822066;29;20527;-76
2022/04/30 01:40:11;;;;;;;19.15;13.25;;;9.40;99.90;;;;;;4807390;29;20022;-76
2022/04/30 01:42:58;;;;;;;23.00;12.25;;;9.50;99.90;;;;;;4823950;29;20067;-77
2022/04/30 01:45:25;;;;;;;22.77;14.32;;;9.40;99.90;;;;;;4805526;29;20084;-76
2022/04/30 01:47:52;;;;;;;21.33;13.63;;;9.40;99.90;;;;;;4807153;29;20026;-77
2022/04/30 01:50:18;;;;;;;22.05;13.45;;;9.40;99.90;;;;;;4804808;29;20463;-76
2022/04/30 01:52:44;;;;;;;22.92;12.70;;;9.40;99.90;;;;;;4824120;29;20022;-75
2022/04/30 01:55:10;;;;;;;19.73;12.07;;;9.30;99.90;;;;;;4823386;29;20018;-76
2022/04/30 01:57:43;;;;;;;20.77;12.88;;;9.30;99.90;;;;;;4823736;29;20031;-77
2022/04/30 02:00:12;;;;;;;18.45;12.63;;;9.30;99.90;;;;;;4823605;29;20074;-77
2022/04/30 02:02:40;;;;;;;19.45;12.73;;;9.30;99.90;;;;;;4823447;29;20026;-75
2022/04/30 02:05:08;;;;;;;21.65;13.38;;;9.30;99.90;;;;;;4823408;29;20026;-78
2022/04/30 02:07:53;;;;;;;24.83;16.85;;;9.30;99.90;;;;;;4825056;29;20037;-76
2022/04/30 02:10:20;;;;;;;22.70;13.52;;;9.20;99.90;;;;;;4825060;29;20027;-77
2022/04/30 02:12:47;;;;;;;27.58;16.23;;;9.20;99.90;;;;;;4824560;29;20074;-76
2022/04/30 02:15:17;;;;;;;28.60;17.60;;;9.10;99.90;;;;;;4824465;29;20026;-77
2022/04/30 02:17:46;;;;;;;29.08;16.63;;;9.10;99.90;;;;;;4808307;29;20064;-77
2022/04/30 02:20:24;;;;;;;25.38;16.08;;;9.10;99.90;;;;;;4808385;29;20447;-77
2022/04/30 02:22:54;;;;;;;23.98;14.52;;;9.10;99.90;;;;;;4824413;29;20023;-78
2022/04/30 02:25:21;;;;;;;23.23;14.88;;;9.10;99.90;;;;;;4824452;29;20379;-76
2022/04/30 02:27:51;;;;;;;25.67;15.75;;;9.10;99.90;;;;;;4825063;29;20031;-76
2022/04/30 02:30:21;;;;;;;27.33;16.30;;;9.10;99.90;;;;;;4808207;29;20030;-76
2022/04/30 02:32:48;;;;;;;22.55;15.20;;;9.10;99.90;;;;;;4827510;29;20074;-76
2022/04/30 02:35:29;;;;;;;21.92;14.32;;;9.10;99.90;;;;;;4811983;29;20031;-77
2022/04/30 02:37:57;;;;;;;23.55;14.65;;;9.10;99.90;;;;;;4827682;29;20347;-76
2022/04/30 02:40:25;;;;;;;25.38;15.70;;;9.10;99.90;;;;;;4811718;29;20030;-76
2022/04/30 02:42:52;;;;;;;22.85;14.88;;;9.10;99.90;;;;;;4827894;29;20022;-77
2022/04/30 02:45:19;;;;;;;21.35;14.80;;;9.10;99.90;;;;;;4812144;29;20117;-76
2022/04/30 02:47:46;;;;;;;37.28;17.85;;;9.00;99.90;;;;;;4828145;29;20369;-76
2022/04/30 02:50:14;;;;;;;28.77;17.35;;;9.00;99.90;;;;;;4827460;29;20026;-77
2022/04/30 02:52:42;;;;;;;32.28;18.40;;;9.10;99.90;;;;;;4811625;29;20030;-77
2022/04/30 02:55:08;;;;;;;33.08;17.27;;;9.10;99.90;;;;;;4827617;29;20062;-78
2022/04/30 03:00:27;;;;;;;28.23;18.67;;;9.00;99.90;;;;;;4827638;29;20107;-78
2022/04/30 03:02:52;;;;;;;30.42;17.35;;;9.00;99.90;;;;;;4827496;29;20118;-76
2022/04/30 03:05:18;;;;;;;30.13;17.55;;;9.00;99.90;;;;;;4827474;29;20107;-76
2022/04/30 03:07:47;;;;;;;31.63;17.80;;;9.00;99.90;;;;;;4811242;29;20030;-76
2022/04/30 03:10:13;;;;;;;37.00;17.75;;;8.90;99.90;;;;;;4827568;29;20029;-77
2022/04/30 03:12:39;;;;;;;34.63;19.08;;;8.80;99.90;;;;;;4827449;29;20038;-78
2022/04/30 03:15:06;;;;;;;36.95;19.75;;;8.80;99.90;;;;;;4827443;29;20026;-77
2022/04/30 03:23:01;;;;;;;34.42;21.48;;;8.80;99.90;;;;;;4827097;29;20511;-76
2022/04/30 03:25:27;;;;;;;36.80;21.77;;;8.80;99.90;;;;;;4810883;29;20034;-75
2022/04/30 03:27:53;;;;;;;35.38;21.60;;;8.80;99.90;;;;;;4810981;29;20034;-76
2022/04/30 03:30:19;;;;;;;38.10;20.75;;;8.80;99.90;;;;;;4827295;29;20468;-77
2022/04/30 03:32:44;;;;;;;31.05;19.02;;;8.80;99.90;;;;;;4810813;29;20372;-77
2022/04/30 03:35:11;;;;;;;36.13;19.05;;;8.80;99.90;;;;;;4826868;29;20105;-76
2022/04/30 03:37:37;;;;;;;33.92;19.77;;;8.90;99.90;;;;;;4827059;29;20034;-77
2022/04/30 03:40:04;;;;;;;34.17;20.75;;;8.90;99.90;;;;;;4826928;29;20037;-77
2022/04/30 03:42:30;;;;;;;29.40;19.25;;;8.80;99.90;;;;;;4826857;29;20022;-78
2022/04/30 03:44:56;;;;;;;30.17;18.35;;;8.80;99.90;;;;;;4826390;29;20095;-76
2022/04/30 03:47:22;;;;;;;31.08;18.63;;;8.80;99.90;;;;;;4810490;29;20030;-76
2022/04/30 03:49:48;;;;;;;34.72;20.13;;;8.80;99.90;;;;;;4827133;29;20039;-77
2022/04/30 03:52:14;;;;;;;32.67;19.73;;;8.80;99.90;;;;;;4826948;29;20061;-75
2022/04/30 03:54:40;;;;;;;35.22;21.05;;;8.80;99.90;;;;;;4826773;29;20054;-76
2022/04/30 03:57:06;;;;;;;33.50;19.90;;;8.90;99.90;;;;;;4810321;29;20030;-78
2022/04/30 03:59:33;;;;;;;54.80;28.67;;;8.90;99.90;;;;;;4826737;29;20054;-78
2022/04/30 04:02:00;;;;;;;62.80;33.90;;;8.90;99.90;;;;;;4826179;29;20026;-76
2022/04/30 04:04:27;;;;;;;44.50;27.20;;;8.90;99.90;;;;;;4826663;29;20033;-76
2022/04/30 04:06:53;;;;;;;50.97;28.33;;;8.90;99.90;;;;;;4810204;29;20030;-76
2022/04/30 04:09:19;;;;;;;37.40;21.77;;;8.80;99.90;;;;;;4826925;29;20026;-76
2022/04/30 04:11:45;;;;;;;29.40;18.23;;;8.80;99.90;;;;;;4826581;29;20029;-75
2022/04/30 04:19:39;;;;;;;40.15;21.30;;;8.80;99.90;;;;;;4826581;29;20041;-78
2022/04/30 04:22:04;;;;;;;73.20;36.05;;;8.80;99.90;;;;;;4809966;29;20023;-76
2022/04/30 04:27:17;;;;;;;42.35;25.58;;;9.00;99.90;;;;;;4826233;29;20041;-77
2022/04/30 04:29:43;;;;;;;59.58;31.88;;;9.10;99.90;;;;;;4826151;29;20060;-76
2022/04/30 04:32:09;;;;;;;97.28;51.58;;;9.20;99.90;;;;;;4826377;29;20025;-78
2022/04/30 04:34:35;;;;;;;49.83;26.98;;;9.30;99.90;;;;;;4810020;29;20026;-76
2022/04/30 04:37:01;;;;;;;72.82;41.15;;;9.40;99.90;;;;;;4809641;29;20485;-77
2022/04/30 04:39:27;;;;;;;38.75;19.77;;;9.50;99.90;;;;;;4826320;29;20079;-76
2022/04/30 04:41:52;;;;;;;31.40;16.80;;;9.60;99.90;;;;;;4809602;29;20046;-76
2022/04/30 04:44:21;;;;;;;31.83;16.08;;;9.70;99.90;;;;;;4826112;29;20031;-77
2022/04/30 04:46:47;;;;;;;29.63;20.02;;;9.80;99.90;;;;;;4826314;29;20083;-77
2022/04/30 04:49:13;;;;;;;31.25;18.58;;;9.90;99.90;;;;;;4809612;29;20026;-77
2022/04/30 04:51:39;;;;;;;28.80;18.17;;;10.00;99.90;;;;;;4825769;29;20027;-77
2022/04/30 04:54:05;;;;;;;37.85;17.88;;;10.10;99.90;;;;;;4825663;29;20107;-75
2022/04/30 04:56:31;;;;;;;35.88;22.00;;;10.10;99.90;;;;;;4824997;29;20455;-77
2022/04/30 04:58:58;;;;;;;37.75;23.30;;;10.20;99.90;;;;;;4809240;29;20033;-77
2022/04/30 05:01:24;;;;;;;38.45;19.90;;;10.30;99.90;;;;;;4809592;29;20034;-75
2022/04/30 05:03:50;;;;;;;31.27;20.98;;;10.40;99.90;;;;;;4809273;29;20515;-77
2022/04/30 05:06:16;;;;;;;29.10;18.90;;;10.40;99.90;;;;;;4808966;29;20026;-75
2022/04/30 05:08:42;;;;;;;38.33;24.92;;;10.40;99.90;;;;;;4825845;29;20030;-75
2022/04/30 05:11:08;;;;;;;55.40;35.13;;;10.60;99.90;;;;;;4825595;29;20086;-77
2022/04/30 05:13:34;;;;;;;42.92;28.05;;;10.70;99.90;;;;;;4825645;29;20362;-76
2022/04/30 05:16:00;;;;;;;37.35;23.38;;;10.80;99.90;;;;;;4809327;29;20026;-77
2022/04/30 05:18:25;;;;;;;44.55;24.30;;;10.90;99.90;;;;;;4825348;29;20495;-78
2022/04/30 05:21:20;;;;;;;40.33;24.52;;;11.00;99.90;;;;;;4825314;29;20555;-76
2022/04/30 05:24:19;;;;;;;28.13;18.67;;;11.00;99.90;;;;;;4824921;29;20030;-76
2022/04/30 05:26:53;;;;;;;41.63;25.45;;;11.10;99.90;;;;;;4808251;29;20087;-76
2022/04/30 05:29:19;;;;;;;34.40;19.85;;;11.20;99.90;;;;;;4825284;29;20412;-75
2022/04/30 05:31:45;;;;;;;29.88;18.58;;;11.30;99.90;;;;;;4825039;29;20027;-76
2022/04/30 05:34:11;;;;;;;33.15;19.45;;;11.40;99.90;;;;;;4825688;29;20510;-75
2022/04/30 05:36:37;;;;;;;30.15;19.77;;;11.50;99.90;;;;;;4825154;29;20038;-74
2022/04/30 05:39:04;;;;;;;31.02;19.85;;;11.50;99.90;;;;;;4825053;29;20650;-76
2022/04/30 05:41:29;;;;;;;32.97;18.73;;;11.70;99.90;;;;;;4825164;29;20026;-74
2022/04/30 05:43:55;;;;;;;31.52;18.90;;;11.70;99.90;;;;;;4824957;29;20029;-74
2022/04/30 05:46:21;;;;;;;27.92;19.15;;;11.80;99.90;;;;;;4825269;29;20105;-74
2022/04/30 05:48:47;;;;;;;25.30;17.50;;;12.00;99.90;;;;;;4824816;29;20027;-76
2022/04/30 05:51:13;;;;;;;27.60;17.05;;;12.00;99.90;;;;;;4824363;29;20026;-76
2022/04/30 05:53:39;;;;;;;33.00;18.08;;;12.00;99.90;;;;;;4823565;29;20099;-76
2022/04/30 05:56:05;;;;;;;30.92;19.70;;;12.20;99.90;;;;;;4824050;29;20026;-76
2022/04/30 05:58:31;;;;;;;32.05;18.40;;;12.30;99.90;;;;;;4824745;29;20030;-76
2022/04/30 06:00:56;;;;;;;28.20;19.90;;;12.40;99.90;;;;;;4826400;29;20049;-76
2022/04/30 06:03:22;;;;;;;31.20;19.33;;;12.50;99.90;;;;;;4834432;29;20032;-75
2022/04/30 06:05:48;;;;;;;36.83;18.60;;;12.50;99.90;;;;;;4832780;29;20034;-77
2022/04/30 06:08:14;;;;;;;30.08;19.35;;;12.60;99.90;;;;;;4816819;29;20029;-77
2022/04/30 06:10:40;;;;;;;31.17;19.75;;;12.70;99.90;;;;;;4818034;29;20026;-78
2022/04/30 06:13:06;;;;;;;30.45;19.27;;;12.80;99.90;;;;;;4827818;29;20110;-76
2022/04/30 06:15:32;;;;;;;32.22;19.17;;;12.90;99.90;;;;;;4824183;29;20109;-76
2022/04/30 06:17:58;;;;;;;34.97;19.73;;;13.00;99.90;;;;;;4824061;29;20038;-75
2022/04/30 06:20:24;;;;;;;28.98;19.80;;;13.10;99.90;;;;;;4823997;29;20054;-76
2022/04/30 06:22:49;;;;;;;30.55;18.77;;;13.20;99.90;;;;;;4824290;29;20370;-77
2022/04/30 06:25:15;;;;;;;30.92;18.20;;;13.30;99.90;;;;;;4824094;29;20037;-75
2022/04/30 06:27:41;;;;;;;29.52;19.58;;;13.40;99.90;;;;;;4824061;29;20030;-76
2022/04/30 06:30:09;;;;;;;35.25;20.75;;;13.60;99.90;;;;;;4824070;29;20091;-75
2022/04/30 06:32:35;;;;;;;28.77;18.83;;;13.80;99.90;;;;;;4826157;29;20026;-77
2022/04/30 06:35:02;;;;;;;28.75;17.42;;;13.90;99.90;;;;;;4816143;29;20084;-76
2022/04/30 06:37:28;;;;;;;29.30;18.42;;;13.90;99.90;;;;;;4828969;29;20038;-77
2022/04/30 06:39:53;;;;;;;24.40;17.23;;;14.00;99.90;;;;;;4832246;29;20105;-76
2022/04/30 06:42:19;;;;;;;27.20;16.40;;;14.10;99.90;;;;;;4832524;29;20030;-76
2022/04/30 06:44:47;;;;;;;26.05;17.25;;;14.20;99.90;;;;;;4831225;29;20030;-76
2022/04/30 06:47:13;;;;;;;30.60;17.45;;;14.40;99.90;;;;;;4832571;29;20022;-77
2022/04/30 06:49:39;;;;;;;27.10;18.27;;;14.60;99.90;;;;;;4832728;29;20022;-76
2022/04/30 06:52:05;;;;;;;24.75;16.60;;;14.70;99.90;;;;;;4830919;29;20030;-76
2022/04/30 06:57:17;;;;;;;23.17;18.25;;;14.80;99.90;;;;;;4830412;29;20105;-77
2022/04/30 06:59:45;;;;;;;32.90;20.77;;;15.00;99.90;;;;;;4830809;29;20058;-77
2022/04/30 07:04:50;;;;;;;29.95;20.13;;;15.30;99.90;;;;;;4827428;29;20022;-77
2022/04/30 07:07:17;;;;;;;29.60;17.15;;;15.60;99.90;;;;;;4823230;29;20022;-75
2022/04/30 07:09:43;;;;;;;30.40;18.23;;;15.80;99.90;;;;;;4806479;29;20156;-76
2022/04/30 07:12:11;;;;;;;22.50;16.67;;;16.00;99.90;;;;;;4823034;29;20113;-77
2022/04/30 07:14:40;;;;;;;26.50;17.30;;;16.10;99.90;;;;;;4822858;29;20076;-77
2022/04/30 07:17:07;;;;;;;26.75;17.60;;;16.30;99.90;;;;;;4822852;29;20038;-77
2022/04/30 07:19:34;;;;;;;28.38;17.73;;;16.30;99.90;;;;;;4825317;29;20027;-76
2022/04/30 07:22:00;;;;;;;23.73;17.33;;;16.60;99.90;;;;;;4825906;29;20402;-77
2022/04/30 07:24:27;;;;;;;28.95;17.85;;;16.70;99.90;;;;;;4809475;29;20117;-77
2022/04/30 07:26:53;;;;;;;29.52;18.25;;;16.60;99.90;;;;;;4825663;29;20379;-78
2022/04/30 07:29:19;;;;;;;28.30;17.95;;;16.70;99.90;;;;;;4809718;29;20459;-78
2022/04/30 07:31:44;;;;;;;29.90;18.35;;;16.80;99.90;;;;;;4809414;29;20478;-77
2022/04/30 07:34:10;;;;;;;27.10;16.90;;;16.90;99.90;;;;;;4826139;29;20083;-78
2022/04/30 07:36:37;;;;;;;24.55;17.98;;;17.00;99.90;;;;;;4825536;29;20035;-76
2022/04/30 07:39:03;;;;;;;32.65;20.58;;;17.30;99.90;;;;;;4825420;29;20030;-76
2022/04/30 07:41:29;;;;;;;23.40;18.23;;;17.60;99.90;;;;;;4825550;29;20026;-75
2022/04/30 07:43:55;;;;;;;25.35;17.27;;;17.60;99.90;;;;;;4825776;29;20027;-77
2022/04/30 07:46:24;;;;;;;25.95;16.48;;;17.60;99.90;;;;;;4825452;29;20037;-75
2022/04/30 07:48:50;;;;;;;27.63;20.83;;;17.90;99.90;;;;;;4823880;29;20019;-76
2022/04/30 07:51:19;;;;;;;28.48;18.98;;;18.20;99.90;;;;;;4825659;29;20038;-76
2022/04/30 07:53:45;;;;;;;28.58;18.92;;;18.30;99.90;;;;;;4825589;29;20018;-76
2022/04/30 07:56:11;;;;;;;31.20;19.90;;;18.30;99.90;;;;;;4826757;29;20061;-75
2022/04/30 07:58:37;;;;;;;35.58;24.23;;;18.60;99.90;;;;;;4826661;29;20033;-75
2022/04/30 08:01:04;;;;;;;32.88;19.70;;;18.70;99.90;;;;;;4826753;29;20077;-75
2022/04/30 08:03:29;;;;;;;31.27;21.40;;;18.80;99.90;;;;;;4826708;29;20022;-74
2022/04/30 08:05:55;;;;;;;46.33;27.40;;;19.00;99.90;;;;;;4825287;29;20029;-74
2022/04/30 08:08:21;;;;;;;45.50;29.38;;;19.00;99.90;;;;;;4827086;29;20073;-75
2022/04/30 08:10:47;;;;;;;60.53;38.10;;;19.10;99.90;;;;;;4826896;29;20058;-75
2022/04/30 08:13:12;;;;;;;63.33;37.10;;;19.30;99.90;;;;;;4826370;29;20029;-75
2022/04/30 08:15:44;;;;;;;49.17;33.05;;;19.50;99.90;;;;;;4826776;29;20036;-74
2022/04/30 08:18:10;;;;;;;61.40;37.20;;;19.60;99.90;;;;;;4826516;29;20035;-74
2022/04/30 08:20:37;;;;;;;45.33;27.02;;;19.60;99.90;;;;;;4826068;29;20077;-74
2022/04/30 08:23:04;;;;;;;45.90;27.38;;;19.90;99.90;;;;;;4826076;29;20041;-73
2022/04/30 08:25:30;;;;;;;109.97;54.88;;;19.80;99.90;;;;;;4826467;29;20374;-74
2022/04/30 08:27:56;;;;;;;39.30;19.95;;;19.70;99.90;;;;;;4826140;29;20034;-74
2022/04/30 08:30:22;;;;;;;31.35;18.23;;;19.70;99.90;;;;;;4826112;29;20027;-74
2022/04/30 08:32:48;;;;;;;27.02;15.65;;;19.70;99.90;;;;;;4825875;29;20374;-72
2022/04/30 08:35:14;;;;;;;30.90;15.20;;;19.70;99.90;;;;;;4826336;29;20033;-73
2022/04/30 08:37:39;;;;;;;38.33;16.80;;;20.00;99.90;;;;;;4825339;29;20030;-76
2022/04/30 08:40:06;;;;;;;30.88;13.55;;;20.20;99.90;;;;;;4825768;29;20488;-76
2022/04/30 08:42:32;;;;;;;32.28;17.20;;;20.20;97.10;;;;;;4826230;29;20167;-75
2022/04/30 08:45:02;;;;;;;40.03;20.80;;;20.30;96.40;;;;;;4809376;29;20113;-74
2022/04/30 08:47:30;;;;;;;29.27;13.30;;;20.50;99.90;;;;;;4825974;29;20455;-75
2022/04/30 08:49:56;;;;;;;19.83;9.73;;;20.50;99.90;;;;;;4825691;29;20518;-76
2022/04/30 08:52:22;;;;;;;45.45;21.27;;;20.10;95.30;;;;;;4826283;29;20027;-75
2022/04/30 08:54:48;;;;;;;18.85;10.70;;;20.30;98.10;;;;;;4809426;29;20390;-75
2022/04/30 08:57:15;;;;;;;32.67;18.23;;;20.70;99.90;;;;;;4825794;29;20038;-77
2022/04/30 08:59:42;;;;;;;15.52;8.20;;;20.90;94.10;;;;;;4818464;29;20046;-74
2022/04/30 09:02:10;;;;;;;19.83;9.02;;;21.10;90.40;;;;;;4807737;29;20034;-76
2022/04/30 09:04:48;;;;;;;14.63;7.15;;;21.10;91.70;;;;;;4807232;29;20023;-76
2022/04/30 09:07:20;;;;;;;13.98;7.32;;;20.90;90.10;;;;;;4806053;29;20058;-75
2022/04/30 09:09:54;;;;;;;10.80;7.05;;;21.20;91.40;;;;;;4806126;29;20455;-74
2022/04/30 09:12:20;;;;;;;13.27;6.88;;;21.30;85.20;;;;;;4806543;29;20035;-74
2022/04/30 09:14:47;;;;;;;14.18;8.68;;;;;;;;;;4790720;29;20022;-75
2022/04/30 09:17:17;;;;;;;14.70;7.55;;;;;;;;;;4791160;29;20027;-76
2022/04/30 09:19:47;;;;;;;15.80;7.05;;;;;;;;;;4807544;29;20022;-73
2022/04/30 09:22:14;;;;;;;13.70;6.72;;;;;;;;;;4807166;29;20031;-77
2022/04/30 09:24:50;;;;;;;12.52;5.72;;;;;;;;;;4807302;29;20061;-76
2022/04/30 09:27:17;;;;;;;11.68;5.60;;;;;;;;;;4807689;29;20069;-76
2022/04/30 09:29:44;;;;;;;15.43;7.32;;;;;;;;;;4807028;29;20027;-75
2022/04/30 09:32:16;;;;;;;14.73;8.18;;;;;;;;;;4790868;29;20019;-76
2022/04/30 09:37:46;;;;;;;13.85;7.38;;;21.40;78.60;;;;;;4806758;29;20498;-76
2022/04/30 09:40:14;;;;;;;14.52;8.05;;;21.00;80.10;;;;;;4807095;29;20029;-74
2022/04/30 09:42:42;;;;;;;18.55;8.48;;;20.70;85.60;;;;;;4806323;29;20033;-76
2022/04/30 09:45:09;;;;;;;20.40;11.02;;;20.50;85.70;;;;;;4806776;29;20023;-75
2022/04/30 09:47:35;;;;;;;17.58;9.93;;;20.70;90.70;;;;;;4806952;29;20084;-75
2022/04/30 09:53:56;;;;;;;22.90;15.52;;;21.60;90.00;;;;;;4806648;29;20038;-74
2022/04/30 09:55:59;;;;;;;16.23;11.25;;;21.10;86.60;;;;;;4806405;29;20459;-75
2022/04/30 09:58:26;;;;;;;17.90;10.82;;;21.00;87.20;;;;;;4806493;29;20467;-75
2022/04/30 10:00:55;;;;;;;19.80;10.73;;;21.20;94.20;;;;;;4823387;29;20049;-73
2022/04/30 10:03:30;;;;;;;9.27;6.88;;;21.90;92.90;;;;;;4808555;29;20370;-76
2022/04/30 10:06:04;;;;;;;8.93;6.10;;;21.40;85.40;;;;;;4824874;29;20077;-75
2022/04/30 10:08:34;;;;;;;9.18;6.30;;;20.90;85.00;;;;;;4808677;29;20362;-75
2022/04/30 10:11:12;;;;;;;12.85;5.88;;;21.30;83.80;;;;;;4825365;29;20132;-74
2022/04/30 10:13:57;;;;;;;11.48;6.57;;;21.70;80.50;;;;;;4824878;29;20066;-75
2022/04/30 10:16:30;;;;;;;8.38;5.07;;;21.40;78.40;;;;;;4824792;29;20065;-76
2022/04/30 10:19:14;;;;;;;8.75;5.40;;;21.40;80.80;;;;;;4825242;29;20057;-74
2022/04/30 10:21:40;;;;;;;13.18;5.80;;;;;;;;;;4824560;29;20465;-76
2022/04/30 10:24:09;;;;;;;10.90;6.60;;;;;;;;;;4824624;29;20033;-74
2022/04/30 10:26:36;;;;;;;8.57;6.30;;;;;;;;;;4824667;29;20083;-77
2022/04/30 10:29:11;;;;;;;11.27;6.32;;;;;;;;;;4824991;29;20027;-76
2022/04/30 10:31:44;;;;;;;9.35;5.97;;;;;;;;;;4808474;29;20027;-76
2022/04/30 10:34:11;;;;;;;6.93;5.47;;;;;;;;;;4824764;29;20026;-75
2022/04/30 10:36:38;;;;;;;9.02;6.25;;;;;;;;;;4824588;29;20033;-74
2022/04/30 10:39:06;;;;;;;11.00;6.03;;;;;;;;;;4808040;29;20030;-75
2022/04/30 10:41:54;;;;;;;7.40;5.65;;;;;;;;;;4824953;29;20026;-77
2022/04/30 10:44:30;;;;;;;8.25;5.88;;;;;;;;;;4824613;29;20023;-75
2022/04/30 10:47:07;;;;;;;9.98;6.50;;;;;;;;;;4824459;29;20057;-77
2022/04/30 10:49:33;;;;;;;9.27;6.57;;;;;;;;;;4824833;29;20026;-76
2022/04/30 10:52:00;;;;;;;12.02;7.00;;;;;;;;;;4824486;29;20370;-77
2022/04/30 10:54:29;;;;;;;12.13;6.97;;;;;;;;;;4827563;29;20095;-76
2022/04/30 10:56:59;;;;;;;16.52;6.18;;;;;;;;;;4827486;29;20027;-77
2022/04/30 10:59:26;;;;;;;8.55;5.82;;;;;;;;;;4827389;29;20047;-77
2022/04/30 11:01:52;;;;;;;12.82;7.60;;;;;;;;;;4827293;29;20014;-76
2022/04/30 11:04:19;;;;;;;9.65;7.30;;;;;;;;;;4827677;29;20467;-78
2022/04/30 11:06:47;;;;;;;11.07;7.25;;;;;;;;;;4827796;29;20082;-77
2022/04/30 11:09:13;;;;;;;6.65;6.05;;;;;;;;;;4827402;29;20023;-76
2022/04/30 11:11:39;;;;;;;7.18;6.47;;;;;;;;;;4827270;29;20026;-75
2022/04/30 11:14:09;;;;;;;9.40;6.18;;;;;;;;;;4827644;29;20462;-78
2022/04/30 11:16:41;;;;;;;8.40;6.78;;;;;;;;;;4811213;29;20033;-76
2022/04/30 11:19:11;;;;;;;10.82;6.88;;;;;;;;;;4827278;29;20484;-76
2022/04/30 11:21:42;;;;;;;10.48;7.13;;;;;;;;;;4811086;29;20026;-76
2022/04/30 11:24:08;;;;;;;11.40;8.43;;;;;;;;;;4827560;29;20022;-77
2022/04/30 11:27:16;;;;;;;13.82;8.77;;;;;;;;;;5091173;27;20864;-76
2022/04/30 11:29:50;;;;;;;11.10;6.43;;;;;;;;;;5091166;28;20477;-80
2022/04/30 11:32:23;;;;;;;8.82;7.47;;;;;;;;;;5091225;28;20099;-79
2022/04/30 11:34:50;;;;;;;12.93;7.88;;;;;;;;;;5089731;28;20016;-81
2022/04/30 11:37:16;;;;;;;22.48;9.75;;;;;;;;;;5090275;28;20020;-78
2022/04/30 11:39:42;;;;;;;20.85;10.27;;;;;;;;;;5091162;28;20043;-77
2022/04/30 11:42:09;;;;;;;13.20;7.55;;;;;;;;;;5089391;28;20024;-77
2022/04/30 11:44:35;;;;;;;11.02;6.82;;;;;;;;;;5091068;28;20107;-79
2022/04/30 11:47:02;;;;;;;64.20;22.65;;;;;;;;;;5091078;28;20049;-80
2022/04/30 11:49:28;;;;;;;17.38;8.70;;;;;;;;;;5089468;28;20062;-78
2022/04/30 11:51:57;;;;;;;128.07;39.47;;;23.20;56.70;;;;;;5090824;28;20012;-78
2022/04/30 11:54:26;;;;;;;9.73;7.15;;;23.10;57.90;;;;;;5091045;28;20458;-80
2022/04/30 11:56:52;;;;;;;13.88;7.10;;;22.80;58.10;;;;;;5090911;28;20130;-78
2022/04/30 11:59:28;;;;;;;11.93;7.45;;;;;;;;;;5088110;28;20366;-81
2022/04/30 12:01:54;;;;;;;15.05;8.02;;;;;;;;;;5078724;28;20024;-79
2022/04/30 12:04:22;;;;;;;34.35;13.93;;;;;;;;;;5078847;28;20021;-78
2022/04/30 12:06:57;;;;;;;12.48;7.70;;;;;;;;;;5074613;28;20023;-79
2022/04/30 12:09:28;;;;;;;11.77;7.90;;;;;;;;;;5069932;28;20071;-80
2022/04/30 12:11:54;;;;;;;14.90;8.88;;;;;;;;;;5088774;28;20076;-80
2022/04/30 12:14:21;;;;;;;13.90;8.68;;;;;;;;;;5085002;28;20021;-80
2022/04/30 12:16:48;;;;;;;14.30;7.38;;;;;;;;;;5069606;28;20023;-80
2022/04/30 12:25:07;;;;;;;11.95;8.88;;;;;;;;;;5086202;28;20039;-79
2022/04/30 12:27:33;;;;;;;10.23;7.75;;;;;;;;;;5088414;28;20012;-80
2022/04/30 12:30:18;;;;;;;9.90;7.43;;;;;;;;;;5088878;28;20028;-80
2022/04/30 12:32:50;;;;;;;10.23;7.88;;;;;;;;;;5084926;28;20455;-80
2022/04/30 12:35:24;;;;;;;9.07;6.63;;;;;;;;;;5080602;28;20024;-79
2022/04/30 12:38:03;;;;;;;30.70;7.93;;;23.10;56.10;;;;;;5059303;28;20019;-80
2022/04/30 12:40:30;;;;;;;10.05;8.50;;;23.10;56.90;;;;;;5059553;28;20083;-80
2022/04/30 12:42:58;;;;;;;13.88;8.23;;;22.90;59.50;;;;;;5071183;28;20042;-81
2022/04/30 12:45:37;;;;;;;10.07;8.23;;;22.90;60.30;;;;;;5072032;28;20052;-81
2022/04/30 12:48:15;;;;;;;11.20;8.30;;;22.90;59.80;;;;;;5071002;28;20028;-80
2022/04/30 12:50:42;;;;;;;11.52;7.68;;;22.80;58.00;;;;;;5074446;28;20430;-80
2022/04/30 12:53:57;;;;;;;8.27;6.95;;;22.90;59.60;;;;;;5075880;28;20058;-81
2022/04/30 12:56:24;;;;;;;11.93;8.18;;;;;;;;;;5058345;28;20067;-83
2022/04/30 12:58:52;;;;;;;8.95;8.00;;;;;;;;;;5063865;28;20028;-81
2022/04/30 13:01:18;;;;;;;10.48;7.28;;;;;;;;;;5056380;28;20017;-79
2022/04/30 13:03:48;;;;;;;11.65;7.95;;;;;;;;;;5055704;28;20019;-83
2022/04/30 13:06:14;;;;;;;16.02;8.68;;;;;;;;;;5054460;28;20025;-82
2022/04/30 13:14:10;;;;;;;8.93;7.25;;;23.00;57.60;;;;;;5072106;28;20027;-78
2022/04/30 13:16:35;;;;;;;13.27;7.78;;;22.40;57.20;;;;;;5073069;28;20024;-79
2022/04/30 13:19:01;;;;;;;20.48;10.98;;;22.10;58.70;;;;;;5074012;28;20027;-80
2022/04/30 13:21:27;;;;;;;13.07;9.32;;;22.30;61.00;;;;;;5069249;28;20017;-80
2022/04/30 13:23:53;;;;;;;12.30;9.18;;;;;;;;;;5055341;28;20064;-78
2022/04/30 13:26:22;;;;;;;20.95;9.38;;;;;;;;;;5053941;28;20487;-78
2022/04/30 13:28:49;;;;;;;9.52;8.32;;;;;;;;;;5054187;28;20040;-78
2022/04/30 13:31:15;;;;;;;22.50;10.32;;;;;;;;;;5055479;28;20024;-78
2022/04/30 13:33:41;;;;;;;11.48;7.47;;;23.60;58.40;;;;;;5053965;28;20020;-78
2022/04/30 13:36:10;;;;;;;16.13;10.80;;;23.20;58.20;;;;;;5051671;28;20052;-79
2022/04/30 13:38:40;;;;;;;20.38;13.02;;;23.20;58.60;;;;;;5053965;28;20055;-77
2022/04/30 13:41:06;;;;;;;26.00;13.65;;;22.80;58.30;;;;;;5062753;28;20028;-80
2022/04/30 13:43:32;;;;;;;11.40;8.30;;;22.70;62.10;;;;;;5055233;28;20025;-78
2022/04/30 13:45:58;;;;;;;15.20;8.90;;;22.90;59.70;;;;;;5055210;28;20029;-79